Hovedside
METAR-TAF:

METAR-TAF

Lufthavner :

Leknes lufthavn

Leknes, Norge

breddegrad: 68-09N, lengdegrad: 013-37E, høyde over havet: 2 m

Gjeldene værobservasjon

Denne rapporten ble laget for 51 minutter siden, klokken 06:20 UTC
Flau vind
Temperatur 10°C
Luftfuktighet 82%
Trykk 1010 hPa
Sikt 10 km eller mer
Spredte skyer i en høyde av 2500 ft
Brutte skyer i en høyde av 3500 ft

METAR: ENLK 140620Z 00000KT 9999 SCT025 BKN035 10/07 Q1010

Tid: 09:11 (07:11 UTC)


TAF: fraværende

Værobservasjoner og værvarsel for over 4000 flyplasser (METAR- og TAF-rapporter).

Tilgjengelige stasjoner er representert av de røde og gule prikkene på kartet.

Hold musepekeren over prikken for å se navnet på stasjonen.

Klikk så for å se værobservasjoner og -varsler.

For å forandre kartet kan du klikke på den grønne knappen med svart kryss for å zoome inn, på den grønne knappen med strek for å zoome ut, eller på de grønne pilene for å se tilstøtende kart.


METAR-TAF: